sensor_id;sensor_type;location;lat;lon;timestamp;P1;durP1;ratioP1;P2;durP2;ratioP2
44276;SDS011;29973;43.742;1.236;2024-03-08T00:01:21;9.20;;;5.45;;
44276;SDS011;29973;43.742;1.236;2024-03-08T00:03:57;13.23;;;6.50;;
44276;SDS011;29973;43.742;1.236;2024-03-08T00:07:14;12.10;;;5.30;;
44276;SDS011;29973;43.742;1.236;2024-03-08T00:10:29;7.95;;;3.97;;
44276;SDS011;29973;43.742;1.236;2024-03-08T00:13:02;8.15;;;4.00;;
44276;SDS011;29973;43.742;1.236;2024-03-08T00:15:31;10.23;;;4.65;;
44276;SDS011;29973;43.742;1.236;2024-03-08T00:18:11;8.80;;;4.93;;
44276;SDS011;29973;43.742;1.236;2024-03-08T00:21:27;9.13;;;4.40;;
44276;SDS011;29973;43.742;1.236;2024-03-08T00:24:21;15.18;;;4.85;;
44276;SDS011;29973;43.742;1.236;2024-03-08T00:29:40;12.27;;;3.97;;
44276;SDS011;29973;43.742;1.236;2024-03-08T00:35:30;5.28;;;3.28;;
44276;SDS011;29973;43.742;1.236;2024-03-08T00:38:26;4.85;;;2.67;;
44276;SDS011;29973;43.742;1.236;2024-03-08T00:41:26;10.15;;;3.88;;
44276;SDS011;29973;43.742;1.236;2024-03-08T00:44:19;11.25;;;3.72;;
44276;SDS011;29973;43.742;1.236;2024-03-08T00:47:07;6.68;;;3.25;;
44276;SDS011;29973;43.742;1.236;2024-03-08T00:49:33;8.27;;;3.10;;
44276;SDS011;29973;43.742;1.236;2024-03-08T00:51:59;6.47;;;3.05;;
44276;SDS011;29973;43.742;1.236;2024-03-08T00:54:24;10.98;;;3.75;;
44276;SDS011;29973;43.742;1.236;2024-03-08T00:56:51;7.15;;;3.00;;
44276;SDS011;29973;43.742;1.236;2024-03-08T00:59:16;13.73;;;4.05;;
44276;SDS011;29973;43.742;1.236;2024-03-08T01:01:42;8.93;;;3.28;;
44276;SDS011;29973;43.742;1.236;2024-03-08T01:04:09;9.05;;;3.13;;
44276;SDS011;29973;43.742;1.236;2024-03-08T01:06:35;5.80;;;2.95;;
44276;SDS011;29973;43.742;1.236;2024-03-08T01:09:02;8.95;;;3.75;;
44276;SDS011;29973;43.742;1.236;2024-03-08T01:11:28;8.60;;;3.70;;
44276;SDS011;29973;43.742;1.236;2024-03-08T01:13:54;9.02;;;3.33;;
44276;SDS011;29973;43.742;1.236;2024-03-08T01:16:19;9.90;;;3.60;;
44276;SDS011;29973;43.742;1.236;2024-03-08T01:18:46;3.38;;;3.00;;
44276;SDS011;29973;43.742;1.236;2024-03-08T01:21:12;8.38;;;2.83;;
44276;SDS011;29973;43.742;1.236;2024-03-08T01:23:38;7.40;;;3.33;;
44276;SDS011;29973;43.742;1.236;2024-03-08T01:26:04;6.15;;;2.55;;
44276;SDS011;29973;43.742;1.236;2024-03-08T01:28:30;4.57;;;3.00;;
44276;SDS011;29973;43.742;1.236;2024-03-08T01:30:56;4.95;;;2.30;;
44276;SDS011;29973;43.742;1.236;2024-03-08T01:33:23;11.25;;;3.05;;
44276;SDS011;29973;43.742;1.236;2024-03-08T01:35:51;6.30;;;3.08;;
44276;SDS011;29973;43.742;1.236;2024-03-08T01:38:17;4.68;;;3.25;;
44276;SDS011;29973;43.742;1.236;2024-03-08T01:40:43;6.35;;;3.13;;
44276;SDS011;29973;43.742;1.236;2024-03-08T01:43:23;7.03;;;3.30;;
44276;SDS011;29973;43.742;1.236;2024-03-08T01:45:52;10.45;;;2.60;;
44276;SDS011;29973;43.742;1.236;2024-03-08T01:48:18;6.90;;;2.72;;
44276;SDS011;29973;43.742;1.236;2024-03-08T01:50:47;9.82;;;3.03;;
44276;SDS011;29973;43.742;1.236;2024-03-08T01:53:12;6.90;;;2.88;;
44276;SDS011;29973;43.742;1.236;2024-03-08T01:55:40;9.35;;;3.40;;
44276;SDS011;29973;43.742;1.236;2024-03-08T01:58:07;4.65;;;3.00;;
44276;SDS011;29973;43.742;1.236;2024-03-08T02:00:34;7.93;;;3.33;;
44276;SDS011;29973;43.742;1.236;2024-03-08T02:03:01;9.25;;;3.13;;
44276;SDS011;29973;43.742;1.236;2024-03-08T02:05:27;9.00;;;3.10;;
44276;SDS011;29973;43.742;1.236;2024-03-08T02:07:53;6.85;;;3.90;;
44276;SDS011;29973;43.742;1.236;2024-03-08T02:10:20;9.88;;;3.58;;
44276;SDS011;29973;43.742;1.236;2024-03-08T02:12:47;7.75;;;2.85;;
44276;SDS011;29973;43.742;1.236;2024-03-08T02:15:13;6.38;;;3.58;;
44276;SDS011;29973;43.742;1.236;2024-03-08T02:17:40;5.93;;;3.47;;
44276;SDS011;29973;43.742;1.236;2024-03-08T02:20:06;4.45;;;3.28;;
44276;SDS011;29973;43.742;1.236;2024-03-08T02:22:34;9.73;;;3.30;;
44276;SDS011;29973;43.742;1.236;2024-03-08T02:25:00;4.95;;;2.75;;
44276;SDS011;29973;43.742;1.236;2024-03-08T02:27:28;7.07;;;2.95;;
44276;SDS011;29973;43.742;1.236;2024-03-08T02:29:55;7.60;;;2.58;;
44276;SDS011;29973;43.742;1.236;2024-03-08T02:32:24;8.25;;;2.58;;
44276;SDS011;29973;43.742;1.236;2024-03-08T02:34:50;4.07;;;2.33;;
44276;SDS011;29973;43.742;1.236;2024-03-08T02:37:16;10.32;;;2.75;;
44276;SDS011;29973;43.742;1.236;2024-03-08T02:39:42;10.60;;;3.55;;
44276;SDS011;29973;43.742;1.236;2024-03-08T02:42:08;6.00;;;1.80;;
44276;SDS011;29973;43.742;1.236;2024-03-08T02:44:34;8.93;;;2.20;;
44276;SDS011;29973;43.742;1.236;2024-03-08T02:47:00;2.70;;;2.17;;
44276;SDS011;29973;43.742;1.236;2024-03-08T02:49:26;7.63;;;2.10;;
44276;SDS011;29973;43.742;1.236;2024-03-08T02:54:27;4.10;;;2.17;;
44276;SDS011;29973;43.742;1.236;2024-03-08T02:56:53;9.13;;;2.30;;
44276;SDS011;29973;43.742;1.236;2024-03-08T02:59:19;11.70;;;2.53;;
44276;SDS011;29973;43.742;1.236;2024-03-08T03:01:44;9.60;;;2.45;;
44276;SDS011;29973;43.742;1.236;2024-03-08T03:04:10;6.22;;;2.42;;
44276;SDS011;29973;43.742;1.236;2024-03-08T03:06:36;5.15;;;2.10;;
44276;SDS011;29973;43.742;1.236;2024-03-08T03:09:02;8.77;;;2.67;;
44276;SDS011;29973;43.742;1.236;2024-03-08T03:11:31;6.13;;;2.70;;
44276;SDS011;29973;43.742;1.236;2024-03-08T03:13:57;5.40;;;2.83;;
44276;SDS011;29973;43.742;1.236;2024-03-08T03:16:22;6.20;;;2.45;;
44276;SDS011;29973;43.742;1.236;2024-03-08T03:18:49;5.00;;;2.70;;
44276;SDS011;29973;43.742;1.236;2024-03-08T03:21:15;7.38;;;2.22;;
44276;SDS011;29973;43.742;1.236;2024-03-08T03:23:40;6.68;;;3.10;;
44276;SDS011;29973;43.742;1.236;2024-03-08T03:26:09;6.72;;;2.90;;
44276;SDS011;29973;43.742;1.236;2024-03-08T03:28:38;4.60;;;2.47;;
44276;SDS011;29973;43.742;1.236;2024-03-08T03:31:06;4.68;;;2.33;;
44276;SDS011;29973;43.742;1.236;2024-03-08T03:33:32;4.75;;;2.33;;
44276;SDS011;29973;43.742;1.236;2024-03-08T03:36:01;6.38;;;1.80;;
44276;SDS011;29973;43.742;1.236;2024-03-08T03:38:28;4.78;;;1.90;;
44276;SDS011;29973;43.742;1.236;2024-03-08T03:40:53;4.10;;;1.90;;
44276;SDS011;29973;43.742;1.236;2024-03-08T03:43:22;7.30;;;2.30;;
44276;SDS011;29973;43.742;1.236;2024-03-08T03:45:48;3.58;;;2.00;;
44276;SDS011;29973;43.742;1.236;2024-03-08T03:48:14;3.55;;;2.15;;
44276;SDS011;29973;43.742;1.236;2024-03-08T03:50:40;9.88;;;2.58;;
44276;SDS011;29973;43.742;1.236;2024-03-08T03:53:06;5.50;;;2.78;;
44276;SDS011;29973;43.742;1.236;2024-03-08T03:55:35;10.75;;;2.47;;
44276;SDS011;29973;43.742;1.236;2024-03-08T03:58:03;4.55;;;2.20;;
44276;SDS011;29973;43.742;1.236;2024-03-08T04:00:29;7.15;;;2.65;;
44276;SDS011;29973;43.742;1.236;2024-03-08T04:02:55;4.60;;;2.35;;
44276;SDS011;29973;43.742;1.236;2024-03-08T04:05:24;2.33;;;2.03;;
44276;SDS011;29973;43.742;1.236;2024-03-08T04:07:49;8.43;;;2.40;;
44276;SDS011;29973;43.742;1.236;2024-03-08T04:10:15;8.52;;;3.40;;
44276;SDS011;29973;43.742;1.236;2024-03-08T04:12:41;2.50;;;2.05;;
44276;SDS011;29973;43.742;1.236;2024-03-08T04:15:07;6.60;;;2.58;;
44276;SDS011;29973;43.742;1.236;2024-03-08T04:17:33;6.95;;;2.30;;
44276;SDS011;29973;43.742;1.236;2024-03-08T04:20:02;2.78;;;2.08;;
44276;SDS011;29973;43.742;1.236;2024-03-08T04:22:34;6.55;;;2.50;;
44276;SDS011;29973;43.742;1.236;2024-03-08T04:25:02;8.05;;;1.85;;
44276;SDS011;29973;43.742;1.236;2024-03-08T04:27:28;7.63;;;2.13;;
44276;SDS011;29973;43.742;1.236;2024-03-08T04:29:54;6.00;;;2.47;;
44276;SDS011;29973;43.742;1.236;2024-03-08T04:32:19;5.15;;;1.83;;
44276;SDS011;29973;43.742;1.236;2024-03-08T04:34:45;5.95;;;2.60;;
44276;SDS011;29973;43.742;1.236;2024-03-08T04:37:12;6.38;;;2.42;;
44276;SDS011;29973;43.742;1.236;2024-03-08T04:39:39;9.10;;;2.05;;
44276;SDS011;29973;43.742;1.236;2024-03-08T04:42:05;6.05;;;2.65;;
44276;SDS011;29973;43.742;1.236;2024-03-08T04:44:38;7.70;;;2.13;;
44276;SDS011;29973;43.742;1.236;2024-03-08T04:47:04;8.57;;;2.30;;
44276;SDS011;29973;43.742;1.236;2024-03-08T04:49:33;3.72;;;2.33;;
44276;SDS011;29973;43.742;1.236;2024-03-08T04:52:04;7.00;;;2.60;;
44276;SDS011;29973;43.742;1.236;2024-03-08T04:54:31;8.70;;;2.42;;
44276;SDS011;29973;43.742;1.236;2024-03-08T04:56:57;8.48;;;2.10;;
44276;SDS011;29973;43.742;1.236;2024-03-08T04:59:27;6.30;;;2.72;;
44276;SDS011;29973;43.742;1.236;2024-03-08T05:01:53;5.63;;;2.22;;
44276;SDS011;29973;43.742;1.236;2024-03-08T05:04:19;3.53;;;1.92;;
44276;SDS011;29973;43.742;1.236;2024-03-08T05:06:44;6.72;;;2.80;;
44276;SDS011;29973;43.742;1.236;2024-03-08T05:09:10;7.53;;;2.45;;
44276;SDS011;29973;43.742;1.236;2024-03-08T05:11:42;4.70;;;2.03;;
44276;SDS011;29973;43.742;1.236;2024-03-08T05:14:09;7.38;;;2.25;;
44276;SDS011;29973;43.742;1.236;2024-03-08T05:16:35;8.27;;;2.45;;
44276;SDS011;29973;43.742;1.236;2024-03-08T05:19:01;6.80;;;2.00;;
44276;SDS011;29973;43.742;1.236;2024-03-08T05:21:27;4.25;;;2.20;;
44276;SDS011;29973;43.742;1.236;2024-03-08T05:23:54;10.73;;;2.30;;
44276;SDS011;29973;43.742;1.236;2024-03-08T05:26:20;12.93;;;2.70;;
44276;SDS011;29973;43.742;1.236;2024-03-08T05:28:47;6.05;;;2.08;;
44276;SDS011;29973;43.742;1.236;2024-03-08T05:31:20;9.52;;;2.72;;
44276;SDS011;29973;43.742;1.236;2024-03-08T05:33:48;8.63;;;2.75;;
44276;SDS011;29973;43.742;1.236;2024-03-08T05:36:15;5.20;;;2.53;;
44276;SDS011;29973;43.742;1.236;2024-03-08T05:38:44;9.10;;;2.47;;
44276;SDS011;29973;43.742;1.236;2024-03-08T05:41:10;5.13;;;2.40;;
44276;SDS011;29973;43.742;1.236;2024-03-08T05:43:37;14.13;;;2.67;;
44276;SDS011;29973;43.742;1.236;2024-03-08T05:46:03;10.73;;;2.80;;
44276;SDS011;29973;43.742;1.236;2024-03-08T05:48:32;13.13;;;3.03;;
44276;SDS011;29973;43.742;1.236;2024-03-08T05:50:59;6.45;;;2.78;;
44276;SDS011;29973;43.742;1.236;2024-03-08T05:53:25;12.13;;;3.60;;
44276;SDS011;29973;43.742;1.236;2024-03-08T05:55:51;7.13;;;3.20;;
44276;SDS011;29973;43.742;1.236;2024-03-08T05:58:17;11.98;;;3.13;;
44276;SDS011;29973;43.742;1.236;2024-03-08T06:00:43;8.35;;;3.50;;
44276;SDS011;29973;43.742;1.236;2024-03-08T06:03:11;9.05;;;3.40;;
44276;SDS011;29973;43.742;1.236;2024-03-08T06:05:36;8.48;;;2.67;;
44276;SDS011;29973;43.742;1.236;2024-03-08T06:08:05;5.43;;;2.40;;
44276;SDS011;29973;43.742;1.236;2024-03-08T06:10:32;9.10;;;2.63;;
44276;SDS011;29973;43.742;1.236;2024-03-08T06:12:58;7.50;;;2.28;;
44276;SDS011;29973;43.742;1.236;2024-03-08T06:15:25;7.82;;;2.38;;
44276;SDS011;29973;43.742;1.236;2024-03-08T06:17:51;11.35;;;2.65;;
44276;SDS011;29973;43.742;1.236;2024-03-08T06:20:19;12.05;;;3.17;;
44276;SDS011;29973;43.742;1.236;2024-03-08T06:22:45;6.32;;;2.25;;
44276;SDS011;29973;43.742;1.236;2024-03-08T06:25:11;5.95;;;2.47;;
44276;SDS011;29973;43.742;1.236;2024-03-08T06:27:41;4.75;;;2.63;;
44276;SDS011;29973;43.742;1.236;2024-03-08T06:30:07;7.85;;;2.97;;
44276;SDS011;29973;43.742;1.236;2024-03-08T06:32:37;5.30;;;2.58;;
44276;SDS011;29973;43.742;1.236;2024-03-08T06:35:03;9.13;;;2.58;;
44276;SDS011;29973;43.742;1.236;2024-03-08T06:37:33;8.15;;;3.08;;
44276;SDS011;29973;43.742;1.236;2024-03-08T06:39:59;3.38;;;2.40;;
44276;SDS011;29973;43.742;1.236;2024-03-08T06:42:29;9.02;;;2.50;;
44276;SDS011;29973;43.742;1.236;2024-03-08T06:45:00;5.80;;;2.15;;
44276;SDS011;29973;43.742;1.236;2024-03-08T06:47:30;10.48;;;3.45;;
44276;SDS011;29973;43.742;1.236;2024-03-08T06:49:59;9.63;;;2.88;;
44276;SDS011;29973;43.742;1.236;2024-03-08T06:52:25;6.25;;;2.63;;
44276;SDS011;29973;43.742;1.236;2024-03-08T06:54:51;12.50;;;3.28;;
44276;SDS011;29973;43.742;1.236;2024-03-08T06:57:17;9.35;;;2.67;;
44276;SDS011;29973;43.742;1.236;2024-03-08T06:59:46;11.43;;;2.53;;
44276;SDS011;29973;43.742;1.236;2024-03-08T07:02:13;12.15;;;3.05;;
44276;SDS011;29973;43.742;1.236;2024-03-08T07:04:38;11.65;;;2.70;;
44276;SDS011;29973;43.742;1.236;2024-03-08T07:07:04;7.68;;;2.63;;
44276;SDS011;29973;43.742;1.236;2024-03-08T07:09:34;12.30;;;2.30;;
44276;SDS011;29973;43.742;1.236;2024-03-08T07:12:03;8.20;;;2.33;;
44276;SDS011;29973;43.742;1.236;2024-03-08T07:14:29;9.52;;;3.30;;
44276;SDS011;29973;43.742;1.236;2024-03-08T07:16:56;14.18;;;2.20;;
44276;SDS011;29973;43.742;1.236;2024-03-08T07:19:22;7.25;;;2.78;;
44276;SDS011;29973;43.742;1.236;2024-03-08T07:21:49;16.08;;;3.65;;
44276;SDS011;29973;43.742;1.236;2024-03-08T07:24:14;13.88;;;2.65;;
44276;SDS011;29973;43.742;1.236;2024-03-08T07:26:40;5.95;;;3.15;;
44276;SDS011;29973;43.742;1.236;2024-03-08T07:29:06;9.75;;;2.72;;
44276;SDS011;29973;43.742;1.236;2024-03-08T07:31:33;14.63;;;3.72;;
44276;SDS011;29973;43.742;1.236;2024-03-08T07:34:20;7.57;;;2.63;;
44276;SDS011;29973;43.742;1.236;2024-03-08T07:36:46;3.28;;;2.13;;
44276;SDS011;29973;43.742;1.236;2024-03-08T07:39:12;9.32;;;2.17;;
44276;SDS011;29973;43.742;1.236;2024-03-08T07:41:38;4.90;;;1.70;;
44276;SDS011;29973;43.742;1.236;2024-03-08T07:44:07;4.70;;;2.08;;
44276;SDS011;29973;43.742;1.236;2024-03-08T07:46:33;4.82;;;1.83;;
44276;SDS011;29973;43.742;1.236;2024-03-08T07:48:59;6.22;;;2.50;;
44276;SDS011;29973;43.742;1.236;2024-03-08T07:51:25;4.03;;;2.55;;
44276;SDS011;29973;43.742;1.236;2024-03-08T07:53:51;6.13;;;3.25;;
44276;SDS011;29973;43.742;1.236;2024-03-08T07:56:16;11.88;;;3.25;;
44276;SDS011;29973;43.742;1.236;2024-03-08T07:58:43;7.50;;;2.47;;
44276;SDS011;29973;43.742;1.236;2024-03-08T08:01:19;9.27;;;2.70;;
44276;SDS011;29973;43.742;1.236;2024-03-08T08:03:45;6.63;;;2.90;;
44276;SDS011;29973;43.742;1.236;2024-03-08T08:06:14;6.38;;;2.45;;
44276;SDS011;29973;43.742;1.236;2024-03-08T08:08:41;6.38;;;2.58;;
44276;SDS011;29973;43.742;1.236;2024-03-08T08:11:07;4.57;;;2.60;;
44276;SDS011;29973;43.742;1.236;2024-03-08T08:13:34;3.42;;;2.67;;
44276;SDS011;29973;43.742;1.236;2024-03-08T08:16:01;4.88;;;2.55;;
44276;SDS011;29973;43.742;1.236;2024-03-08T08:18:27;6.55;;;3.30;;
44276;SDS011;29973;43.742;1.236;2024-03-08T08:23:30;9.02;;;3.50;;
44276;SDS011;29973;43.742;1.236;2024-03-08T08:25:56;4.00;;;3.70;;
44276;SDS011;29973;43.742;1.236;2024-03-08T08:28:21;4.63;;;4.03;;
44276;SDS011;29973;43.742;1.236;2024-03-08T08:30:47;3.85;;;3.55;;
44276;SDS011;29973;43.742;1.236;2024-03-08T08:33:14;4.03;;;3.83;;
44276;SDS011;29973;43.742;1.236;2024-03-08T08:35:40;5.22;;;2.83;;
44276;SDS011;29973;43.742;1.236;2024-03-08T08:38:05;6.50;;;2.42;;
44276;SDS011;29973;43.742;1.236;2024-03-08T08:40:32;3.05;;;2.38;;
44276;SDS011;29973;43.742;1.236;2024-03-08T08:42:59;6.80;;;2.75;;
44276;SDS011;29973;43.742;1.236;2024-03-08T08:45:25;4.10;;;1.30;;
44276;SDS011;29973;43.742;1.236;2024-03-08T08:47:51;1.20;;;1.10;;
44276;SDS011;29973;43.742;1.236;2024-03-08T08:50:17;3.83;;;1.50;;
44276;SDS011;29973;43.742;1.236;2024-03-08T08:52:48;1.42;;;1.33;;
44276;SDS011;29973;43.742;1.236;2024-03-08T08:55:14;2.83;;;1.52;;
44276;SDS011;29973;43.742;1.236;2024-03-08T08:57:40;1.20;;;1.10;;
44276;SDS011;29973;43.742;1.236;2024-03-08T09:00:07;0.98;;;0.93;;
44276;SDS011;29973;43.742;1.236;2024-03-08T09:02:33;1.13;;;1.00;;
44276;SDS011;29973;43.742;1.236;2024-03-08T09:04:59;0.40;;;0.40;;
44276;SDS011;29973;43.742;1.236;2024-03-08T09:07:26;0.45;;;0.45;;
44276;SDS011;29973;43.742;1.236;2024-03-08T09:09:53;0.40;;;0.40;;
44276;SDS011;29973;43.742;1.236;2024-03-08T09:12:22;0.50;;;0.50;;
44276;SDS011;29973;43.742;1.236;2024-03-08T09:14:48;0.73;;;0.70;;
44276;SDS011;29973;43.742;1.236;2024-03-08T09:17:14;0.50;;;0.50;;
44276;SDS011;29973;43.742;1.236;2024-03-08T09:19:45;0.60;;;0.60;;
44276;SDS011;29973;43.742;1.236;2024-03-08T09:22:13;0.40;;;0.40;;
44276;SDS011;29973;43.742;1.236;2024-03-08T09:24:39;0.60;;;0.60;;
44276;SDS011;29973;43.742;1.236;2024-03-08T09:27:05;0.50;;;0.50;;
44276;SDS011;29973;43.742;1.236;2024-03-08T09:29:31;0.70;;;0.70;;
44276;SDS011;29973;43.742;1.236;2024-03-08T09:31:57;8.63;;;3.25;;
44276;SDS011;29973;43.742;1.236;2024-03-08T09:34:22;0.50;;;0.50;;
44276;SDS011;29973;43.742;1.236;2024-03-08T09:36:48;0.50;;;0.50;;
44276;SDS011;29973;43.742;1.236;2024-03-08T09:39:17;0.98;;;0.98;;
44276;SDS011;29973;43.742;1.236;2024-03-08T09:41:45;0.50;;;0.50;;
44276;SDS011;29973;43.742;1.236;2024-03-08T09:44:14;0.60;;;0.60;;
44276;SDS011;29973;43.742;1.236;2024-03-08T09:46:45;1.73;;;1.63;;
44276;SDS011;29973;43.742;1.236;2024-03-08T09:49:16;1.13;;;1.13;;
44276;SDS011;29973;43.742;1.236;2024-03-08T09:51:42;0.52;;;0.52;;
44276;SDS011;29973;43.742;1.236;2024-03-08T09:54:08;0.50;;;0.50;;
44276;SDS011;29973;43.742;1.236;2024-03-08T09:56:37;0.60;;;0.60;;
44276;SDS011;29973;43.742;1.236;2024-03-08T09:59:09;0.90;;;0.90;;
44276;SDS011;29973;43.742;1.236;2024-03-08T10:01:50;0.50;;;0.50;;
44276;SDS011;29973;43.742;1.236;2024-03-08T10:04:17;0.60;;;0.60;;
44276;SDS011;29973;43.742;1.236;2024-03-08T10:06:45;0.80;;;0.80;;
44276;SDS011;29973;43.742;1.236;2024-03-08T10:09:12;0.60;;;0.60;;
44276;SDS011;29973;43.742;1.236;2024-03-08T10:11:39;0.60;;;0.60;;
44276;SDS011;29973;43.742;1.236;2024-03-08T10:14:05;0.70;;;0.70;;
44276;SDS011;29973;43.742;1.236;2024-03-08T10:16:34;0.50;;;0.50;;
44276;SDS011;29973;43.742;1.236;2024-03-08T10:19:00;0.70;;;0.70;;
44276;SDS011;29973;43.742;1.236;2024-03-08T10:21:26;0.70;;;0.70;;
44276;SDS011;29973;43.742;1.236;2024-03-08T10:23:52;0.73;;;0.73;;
44276;SDS011;29973;43.742;1.236;2024-03-08T10:26:18;0.80;;;0.80;;
44276;SDS011;29973;43.742;1.236;2024-03-08T10:28:47;0.50;;;0.50;;
44276;SDS011;29973;43.742;1.236;2024-03-08T10:31:14;0.65;;;0.65;;
44276;SDS011;29973;43.742;1.236;2024-03-08T10:33:44;0.60;;;0.60;;
44276;SDS011;29973;43.742;1.236;2024-03-08T10:36:11;0.70;;;0.70;;
44276;SDS011;29973;43.742;1.236;2024-03-08T10:38:39;0.70;;;0.70;;
44276;SDS011;29973;43.742;1.236;2024-03-08T10:41:07;0.60;;;0.60;;
44276;SDS011;29973;43.742;1.236;2024-03-08T10:46:18;0.70;;;0.70;;
44276;SDS011;29973;43.742;1.236;2024-03-08T10:48:55;0.80;;;0.80;;
44276;SDS011;29973;43.742;1.236;2024-03-08T10:51:28;0.70;;;0.70;;
44276;SDS011;29973;43.742;1.236;2024-03-08T10:53:56;0.70;;;0.70;;
44276;SDS011;29973;43.742;1.236;2024-03-08T10:56:24;0.70;;;0.70;;
44276;SDS011;29973;43.742;1.236;2024-03-08T10:58:52;0.70;;;0.70;;
44276;SDS011;29973;43.742;1.236;2024-03-08T11:01:20;0.70;;;0.70;;
44276;SDS011;29973;43.742;1.236;2024-03-08T11:03:46;0.60;;;0.60;;
44276;SDS011;29973;43.742;1.236;2024-03-08T11:08:48;0.80;;;0.80;;
44276;SDS011;29973;43.742;1.236;2024-03-08T11:11:38;0.70;;;0.70;;
44276;SDS011;29973;43.742;1.236;2024-03-08T11:14:07;0.70;;;0.70;;
44276;SDS011;29973;43.742;1.236;2024-03-08T11:19:34;0.70;;;0.70;;
44276;SDS011;29973;43.742;1.236;2024-03-08T11:22:01;0.70;;;0.70;;
44276;SDS011;29973;43.742;1.236;2024-03-08T11:24:36;0.80;;;0.80;;
44276;SDS011;29973;43.742;1.236;2024-03-08T11:27:05;0.60;;;0.60;;
44276;SDS011;29973;43.742;1.236;2024-03-08T11:29:32;0.90;;;0.90;;
44276;SDS011;29973;43.742;1.236;2024-03-08T11:32:15;0.70;;;0.70;;
44276;SDS011;29973;43.742;1.236;2024-03-08T11:34:47;0.70;;;0.70;;
44276;SDS011;29973;43.742;1.236;2024-03-08T11:37:15;0.80;;;0.80;;
44276;SDS011;29973;43.742;1.236;2024-03-08T11:39:46;0.80;;;0.80;;
44276;SDS011;29973;43.742;1.236;2024-03-08T11:42:17;1.40;;;1.40;;
44276;SDS011;29973;43.742;1.236;2024-03-08T11:44:47;0.60;;;0.60;;
44276;SDS011;29973;43.742;1.236;2024-03-08T11:47:13;0.40;;;0.40;;
44276;SDS011;29973;43.742;1.236;2024-03-08T11:49:40;2.88;;;2.78;;
44276;SDS011;29973;43.742;1.236;2024-03-08T11:52:13;0.88;;;0.80;;
44276;SDS011;29973;43.742;1.236;2024-03-08T11:54:40;0.95;;;0.70;;
44276;SDS011;29973;43.742;1.236;2024-03-08T11:57:08;1.58;;;0.75;;
44276;SDS011;29973;43.742;1.236;2024-03-08T11:59:35;0.85;;;0.63;;
44276;SDS011;29973;43.742;1.236;2024-03-08T12:02:02;1.00;;;0.90;;
44276;SDS011;29973;43.742;1.236;2024-03-08T12:04:29;0.80;;;0.73;;
44276;SDS011;29973;43.742;1.236;2024-03-08T12:06:57;2.00;;;1.08;;
44276;SDS011;29973;43.742;1.236;2024-03-08T12:09:28;1.00;;;0.88;;
44276;SDS011;29973;43.742;1.236;2024-03-08T12:11:54;1.10;;;1.00;;
44276;SDS011;29973;43.742;1.236;2024-03-08T12:14:20;1.67;;;1.10;;
44276;SDS011;29973;43.742;1.236;2024-03-08T12:16:48;1.88;;;0.98;;
44276;SDS011;29973;43.742;1.236;2024-03-08T12:19:16;1.10;;;0.80;;
44276;SDS011;29973;43.742;1.236;2024-03-08T12:21:42;2.33;;;1.00;;
44276;SDS011;29973;43.742;1.236;2024-03-08T12:24:14;0.95;;;0.82;;
44276;SDS011;29973;43.742;1.236;2024-03-08T12:29:28;1.85;;;0.95;;
44276;SDS011;29973;43.742;1.236;2024-03-08T12:31:55;1.95;;;1.00;;
44276;SDS011;29973;43.742;1.236;2024-03-08T12:34:26;1.33;;;0.80;;
44276;SDS011;29973;43.742;1.236;2024-03-08T12:36:53;1.85;;;0.95;;
44276;SDS011;29973;43.742;1.236;2024-03-08T12:39:20;1.70;;;0.90;;
44276;SDS011;29973;43.742;1.236;2024-03-08T12:41:53;2.05;;;0.98;;
44276;SDS011;29973;43.742;1.236;2024-03-08T12:44:19;3.03;;;0.70;;
44276;SDS011;29973;43.742;1.236;2024-03-08T12:46:48;1.50;;;1.02;;
44276;SDS011;29973;43.742;1.236;2024-03-08T12:49:14;1.08;;;0.90;;
44276;SDS011;29973;43.742;1.236;2024-03-08T12:51:43;2.00;;;0.93;;
44276;SDS011;29973;43.742;1.236;2024-03-08T12:54:10;2.17;;;1.02;;
44276;SDS011;29973;43.742;1.236;2024-03-08T12:56:36;1.50;;;1.00;;
44276;SDS011;29973;43.742;1.236;2024-03-08T12:59:05;1.33;;;0.90;;
44276;SDS011;29973;43.742;1.236;2024-03-08T13:01:33;4.78;;;1.10;;
44276;SDS011;29973;43.742;1.236;2024-03-08T13:04:02;0.85;;;0.70;;
44276;SDS011;29973;43.742;1.236;2024-03-08T13:06:29;1.45;;;0.88;;
44276;SDS011;29973;43.742;1.236;2024-03-08T13:08:56;1.02;;;0.70;;
44276;SDS011;29973;43.742;1.236;2024-03-08T13:11:23;1.27;;;0.80;;
44276;SDS011;29973;43.742;1.236;2024-03-08T13:13:49;1.35;;;0.70;;
44276;SDS011;29973;43.742;1.236;2024-03-08T13:16:16;2.05;;;0.93;;
44276;SDS011;29973;43.742;1.236;2024-03-08T13:18:44;1.65;;;1.00;;
44276;SDS011;29973;43.742;1.236;2024-03-08T13:21:10;1.33;;;0.70;;
44276;SDS011;29973;43.742;1.236;2024-03-08T13:23:39;1.17;;;0.73;;
44276;SDS011;29973;43.742;1.236;2024-03-08T13:26:06;1.17;;;0.88;;
44276;SDS011;29973;43.742;1.236;2024-03-08T13:28:33;1.95;;;0.80;;
44276;SDS011;29973;43.742;1.236;2024-03-08T13:31:05;1.00;;;0.90;;
44276;SDS011;29973;43.742;1.236;2024-03-08T13:33:35;2.85;;;1.15;;
44276;SDS011;29973;43.742;1.236;2024-03-08T13:36:05;0.85;;;0.60;;
44276;SDS011;29973;43.742;1.236;2024-03-08T13:38:34;2.08;;;0.90;;
44276;SDS011;29973;43.742;1.236;2024-03-08T13:41:01;1.30;;;0.90;;
44276;SDS011;29973;43.742;1.236;2024-03-08T13:43:27;0.82;;;0.60;;
44276;SDS011;29973;43.742;1.236;2024-03-08T13:45:53;1.27;;;0.80;;
44276;SDS011;29973;43.742;1.236;2024-03-08T13:48:22;1.48;;;0.70;;
44276;SDS011;29973;43.742;1.236;2024-03-08T13:50:48;0.75;;;0.60;;
44276;SDS011;29973;43.742;1.236;2024-03-08T13:53:17;1.08;;;0.50;;
44276;SDS011;29973;43.742;1.236;2024-03-08T13:55:43;1.40;;;0.60;;
44276;SDS011;29973;43.742;1.236;2024-03-08T13:58:09;1.02;;;0.70;;
44276;SDS011;29973;43.742;1.236;2024-03-08T14:00:35;1.40;;;0.70;;
44276;SDS011;29973;43.742;1.236;2024-03-08T14:03:01;2.72;;;0.93;;
44276;SDS011;29973;43.742;1.236;2024-03-08T14:05:35;1.45;;;0.80;;
44276;SDS011;29973;43.742;1.236;2024-03-08T14:08:04;1.15;;;0.90;;
44276;SDS011;29973;43.742;1.236;2024-03-08T14:10:32;1.25;;;0.70;;
44276;SDS011;29973;43.742;1.236;2024-03-08T14:12:59;1.00;;;0.90;;
44276;SDS011;29973;43.742;1.236;2024-03-08T14:15:26;1.98;;;0.70;;
44276;SDS011;29973;43.742;1.236;2024-03-08T14:17:52;1.52;;;0.77;;
44276;SDS011;29973;43.742;1.236;2024-03-08T14:20:18;1.55;;;0.90;;
44276;SDS011;29973;43.742;1.236;2024-03-08T14:22:44;2.65;;;1.10;;
44276;SDS011;29973;43.742;1.236;2024-03-08T14:25:11;1.00;;;1.00;;
44276;SDS011;29973;43.742;1.236;2024-03-08T14:27:42;1.35;;;1.10;;
44276;SDS011;29973;43.742;1.236;2024-03-08T14:30:09;3.40;;;1.20;;
44276;SDS011;29973;43.742;1.236;2024-03-08T14:32:35;2.20;;;1.23;;
44276;SDS011;29973;43.742;1.236;2024-03-08T14:35:03;3.33;;;1.10;;
44276;SDS011;29973;43.742;1.236;2024-03-08T14:37:33;1.48;;;1.15;;
44276;SDS011;29973;43.742;1.236;2024-03-08T14:39:59;1.13;;;0.93;;
44276;SDS011;29973;43.742;1.236;2024-03-08T14:42:25;1.17;;;1.00;;
44276;SDS011;29973;43.742;1.236;2024-03-08T14:44:51;1.52;;;0.95;;
44276;SDS011;29973;43.742;1.236;2024-03-08T14:47:19;2.10;;;1.20;;
44276;SDS011;29973;43.742;1.236;2024-03-08T14:49:45;1.10;;;1.00;;
44276;SDS011;29973;43.742;1.236;2024-03-08T14:52:13;1.10;;;1.00;;
44276;SDS011;29973;43.742;1.236;2024-03-08T14:54:54;2.03;;;1.02;;
44276;SDS011;29973;43.742;1.236;2024-03-08T14:57:21;1.40;;;1.30;;
44276;SDS011;29973;43.742;1.236;2024-03-08T14:59:47;1.00;;;1.00;;
44276;SDS011;29973;43.742;1.236;2024-03-08T15:02:12;1.30;;;1.20;;
44276;SDS011;29973;43.742;1.236;2024-03-08T15:04:38;1.42;;;1.00;;
44276;SDS011;29973;43.742;1.236;2024-03-08T15:07:06;0.80;;;0.80;;
44276;SDS011;29973;43.742;1.236;2024-03-08T15:09:35;0.85;;;0.82;;
44276;SDS011;29973;43.742;1.236;2024-03-08T15:12:05;1.10;;;0.93;;
44276;SDS011;29973;43.742;1.236;2024-03-08T15:14:32;0.98;;;0.70;;